Time;durP1;ratioP1;P1;durP2;ratioP2;P2;SDS_P1;SDS_P2;PMS_P1;PMS_P2;Temp;Humidity;BMP_temperature;BMP_pressure;BME280_temperature;BME280_humidity;BME280_pressure;Samples;Min_cycle;Max_cycle;Signal;HPM_P1;HPM_P2
2023/05/30 00:01:18;;;;;;;4.00;1.10;;;;;;;;;;5078674;27;87668;-79
2023/05/30 00:03:45;;;;;;;4.07;1.10;;;;;;;;;;5067160;27;88084;-79
2023/05/30 00:06:12;;;;;;;3.97;1.10;;;;;;;;;;5065374;27;88262;-79
2023/05/30 00:08:40;;;;;;;3.67;1.00;;;;;;;;;;5086054;27;87615;-79
2023/05/30 00:11:06;;;;;;;;;;;;;;;;;;5069132;27;90078;-79
2023/05/30 00:13:33;;;;;;;4.03;1.20;;;;;;;;;;5081388;27;108973;-78
2023/05/30 00:16:00;;;;;;;4.82;1.13;;;;;;;;;;5070904;27;87767;-78
2023/05/30 00:18:34;;;;;;;4.85;1.10;;;;;;;;;;5087851;27;88476;-78
2023/05/30 00:21:05;;;;;;;1.85;0.90;;;;;;;;;;5065480;27;92880;-79
2023/05/30 00:23:32;;;;;;;5.53;1.20;;;;;;;;;;5065571;27;90878;-78
2023/05/30 00:26:03;;;;;;;2.97;1.02;;;;;;;;;;5066034;27;88342;-78
2023/05/30 00:28:30;;;;;;;4.53;1.08;;;;;;;;;;5066774;27;87723;-78
2023/05/30 00:30:57;;;;;;;;;;;;;;;;;;5066244;27;88917;-79
2023/05/30 00:33:24;;;;;;;5.28;1.15;;;;;;;;;;5071444;27;96237;-78
2023/05/30 00:35:50;;;;;;;2.88;1.10;;;;;;;;;;5085152;27;87705;-78
2023/05/30 00:38:17;;;;;;;3.15;1.02;;;;;;;;;;5086558;27;88456;-79
2023/05/30 00:40:44;;;;;;;3.75;1.13;;;;;;;;;;5087399;27;88682;-79
2023/05/30 00:43:10;;;;;;;4.88;1.20;;;;;;;;;;5066791;27;87622;-78
2023/05/30 00:45:38;;;;;;;4.10;1.10;;;;;;;;;;5064035;27;89474;-78
2023/05/30 00:48:05;;;;;;;3.83;1.10;;;;;;;;;;5051152;27;89137;-78
2023/05/30 00:50:33;;;;;;;3.70;1.17;;;;;;;;;;5086670;27;87825;-79
2023/05/30 00:52:59;;;;;;;4.47;1.20;;;;;;;;;;5084860;27;88264;-78
2023/05/30 00:55:26;;;;;;;3.95;1.10;;;;;;;;;;5082797;27;90141;-78
2023/05/30 00:57:53;;;;;;;3.90;1.00;;;;;;;;;;5079326;27;88122;-78
2023/05/30 01:00:21;;;;;;;3.63;1.00;;;;;;;;;;5074059;27;88289;-78
2023/05/30 01:02:48;;;;;;;3.67;1.00;;;;;;;;;;5068585;27;86967;-79
2023/05/30 01:05:15;;;;;;;3.50;1.00;;;;;;;;;;5064187;27;90798;-79
2023/05/30 01:07:44;;;;;;;3.38;1.25;;;;;;;;;;5065001;27;88555;-79
2023/05/30 01:10:13;;;;;;;3.83;1.20;;;;;;;;;;5047090;27;90958;-79
2023/05/30 01:12:40;;;;;;;;;;;;;;;;;;5069967;27;91575;-79
2023/05/30 01:15:18;;;;;;;3.92;1.10;;;;;;;;;;5076356;27;107642;-78
2023/05/30 01:17:50;;;;;;;3.60;1.05;;;;;;;;;;5066375;27;88052;-79
2023/05/30 01:20:18;;;;;;;4.10;1.17;;;;;;;;;;5063899;27;90882;-78
2023/05/30 01:22:50;;;;;;;3.88;0.98;;;;;;;;;;5063345;27;87781;-79
2023/05/30 01:25:22;;;;;;;4.30;1.20;;;;;;;;;;5067030;27;89050;-78
2023/05/30 01:28:03;;;;;;;3.33;1.20;;;;;;;;;;5066548;27;88016;-78
2023/05/30 01:30:31;;;;;;;5.90;1.08;;;;;;;;;;5063511;27;88123;-78
2023/05/30 01:32:59;;;;;;;5.00;1.25;;;;;;;;;;5065084;27;90689;-79
2023/05/30 01:35:25;;;;;;;5.20;1.20;;;;;;;;;;5073314;27;88609;-78
2023/05/30 01:37:52;;;;;;;3.78;1.13;;;;;;;;;;5083747;27;89202;-78
2023/05/30 01:40:23;;;;;;;5.45;1.20;;;;;;;;;;5085854;27;88513;-78
2023/05/30 01:42:52;;;;;;;5.53;1.30;;;;;;;;;;5071250;27;89399;-79
2023/05/30 01:45:20;;;;;;;4.78;1.33;;;;;;;;;;5065501;27;88660;-78
2023/05/30 01:47:47;;;;;;;4.90;1.30;;;;;;;;;;5067048;27;90608;-78
2023/05/30 01:50:15;;;;;;;3.92;1.10;;;;;;;;;;5063427;27;90601;-78
2023/05/30 01:52:46;;;;;;;4.95;1.20;;;;;;;;;;5063651;27;87623;-78
2023/05/30 01:55:13;;;;;;;3.97;1.20;;;;;;;;;;5075129;27;90745;-78
2023/05/30 01:57:45;;;;;;;3.63;1.10;;;;;;;;;;5063578;27;90571;-78
2023/05/30 02:00:16;;;;;;;3.08;1.20;;;;;;;;;;5074614;27;89050;-78
2023/05/30 02:02:44;;;;;;;2.85;1.02;;;;;;;;;;5058914;27;89346;-79
2023/05/30 02:05:11;;;;;;;2.10;0.98;;;;;;;;;;5084966;27;88589;-78
2023/05/30 02:07:38;;;;;;;3.75;1.00;;;;;;;;;;5087047;27;90568;-78
2023/05/30 02:10:05;;;;;;;3.20;1.10;;;;;;;;;;5083328;27;91006;-78
2023/05/30 02:12:34;;;;;;;6.10;1.20;;;;;;;;;;5065480;27;91083;-78
2023/05/30 02:15:01;;;;;;;3.00;1.08;;;;;;;;;;5062163;27;89644;-78
2023/05/30 02:17:27;;;;;;;4.30;1.10;;;;;;;;;;5063869;27;90984;-78
2023/05/30 02:19:54;;;;;;;4.50;1.20;;;;;;;;;;5046376;27;87719;-79
2023/05/30 02:22:20;;;;;;;5.53;1.30;;;;;;;;;;5064224;27;87647;-78
2023/05/30 02:24:47;;;;;;;3.25;1.00;;;;;;;;;;5062007;27;89737;-79
2023/05/30 02:27:14;;;;;;;5.28;1.20;;;;;;;;;;5067373;27;88600;-79
2023/05/30 02:29:40;;;;;;;5.20;1.30;;;;;;;;;;5085703;27;88056;-79
2023/05/30 02:32:07;;;;;;;4.35;1.20;;;;;;;;;;5083908;27;88518;-79
2023/05/30 02:34:34;;;;;;;4.72;1.25;;;;;;;;;;5054943;27;89265;-80
2023/05/30 02:37:02;;;;;;;5.25;1.30;;;;;;;;;;5066729;27;92323;-78
2023/05/30 02:39:28;;;;;;;5.47;1.20;;;;;;;;;;5083797;27;90779;-78
2023/05/30 02:41:55;;;;;;;3.33;1.05;;;;;;;;;;5082491;27;89668;-78
2023/05/30 02:44:22;;;;;;;4.20;1.05;;;;;;;;;;5062786;27;89528;-78
2023/05/30 02:46:50;;;;;;;4.38;1.10;;;;;;;;;;5061896;27;91303;-78
2023/05/30 02:49:17;;;;;;;5.07;1.35;;;;;;;;;;5062374;27;89208;-78
2023/05/30 02:51:44;;;;;;;4.55;1.30;;;;;;;;;;5077605;27;90295;-79
2023/05/30 02:54:17;;;;;;;;;;;;;;;;;;5067340;27;89260;-78
2023/05/30 02:57:22;;;;;;;3.80;1.27;;;;;;;;;;5009942;28;91815;-78
2023/05/30 03:00:06;;;;;;;5.40;1.20;;;;;;;;;;5075069;27;88653;-79
2023/05/30 03:02:34;;;;;;;4.40;1.25;;;;;;;;;;5066397;27;89079;-79
2023/05/30 03:05:03;;;;;;;3.28;1.20;;;;;;;;;;5082684;27;94221;-79
2023/05/30 03:07:32;;;;;;;3.42;1.20;;;;;;;;;;5081545;27;87420;-79
2023/05/30 03:09:58;;;;;;;4.30;1.20;;;;;;;;;;5062755;27;87705;-79
2023/05/30 03:12:26;;;;;;;3.78;1.27;;;;;;;;;;5080013;27;88243;-79
2023/05/30 03:14:52;;;;;;;3.80;1.40;;;;;;;;;;5088268;27;89051;-78
2023/05/30 03:17:20;;;;;;;3.90;1.30;;;;;;;;;;5086495;27;91353;-79
2023/05/30 03:19:47;;;;;;;2.42;1.00;;;;;;;;;;5069755;27;90499;-79
2023/05/30 03:22:15;;;;;;;4.30;1.15;;;;;;;;;;5086455;27;88360;-79
2023/05/30 03:24:42;;;;;;;4.10;1.15;;;;;;;;;;5083344;27;90700;-79
2023/05/30 03:27:08;;;;;;;3.20;1.30;;;;;;;;;;5066096;27;90121;-78
2023/05/30 03:29:35;;;;;;;3.65;1.10;;;;;;;;;;5063571;27;89970;-79
2023/05/30 03:32:02;;;;;;;2.85;1.15;;;;;;;;;;5062406;27;90742;-79
2023/05/30 03:34:30;;;;;;;3.15;1.30;;;;;;;;;;5085476;27;90811;-78
2023/05/30 03:36:57;;;;;;;3.63;1.02;;;;;;;;;;5089153;27;89852;-79
2023/05/30 03:39:25;;;;;;;4.32;1.23;;;;;;;;;;5086132;27;91338;-78
2023/05/30 03:41:53;;;;;;;4.90;1.30;;;;;;;;;;5083102;27;87722;-79
2023/05/30 03:44:21;;;;;;;4.10;1.50;;;;;;;;;;5075199;27;90254;-78
2023/05/30 03:46:48;;;;;;;4.32;1.10;;;;;;;;;;5064831;27;90304;-79
2023/05/30 03:49:16;;;;;;;3.67;1.30;;;;;;;;;;5064854;27;89748;-79
2023/05/30 03:51:42;;;;;;;3.05;1.00;;;;;;;;;;5065220;27;90832;-78
2023/05/30 03:54:09;;;;;;;4.30;1.20;;;;;;;;;;5072935;27;88390;-79
2023/05/30 03:56:35;;;;;;;3.83;1.13;;;;;;;;;;5074165;27;87653;-79
2023/05/30 03:59:01;;;;;;;3.70;1.20;;;;;;;;;;5077433;27;92846;-79
2023/05/30 04:01:30;;;;;;;4.00;1.30;;;;;;;;;;5058598;27;88859;-79
2023/05/30 04:03:57;;;;;;;3.70;1.38;;;;;;;;;;5079861;27;89528;-79
2023/05/30 04:06:24;;;;;;;4.38;1.40;;;;;;;;;;5066224;27;87990;-78
2023/05/30 04:08:51;;;;;;;3.88;1.40;;;;;;;;;;5063966;27;89071;-78
2023/05/30 04:11:18;;;;;;;3.25;1.30;;;;;;;;;;5071168;27;90367;-78
2023/05/30 04:13:45;;;;;;;2.95;1.27;;;;;;;;;;5070453;27;88287;-78
2023/05/30 04:16:11;;;;;;;4.43;1.30;;;;;;;;;;5084565;27;89256;-79
2023/05/30 04:18:43;;;;;;;4.72;1.38;;;;;;;;;;5087735;27;90790;-80
2023/05/30 04:21:13;;;;;;;4.80;1.30;;;;;;;;;;5073593;27;87011;-79
2023/05/30 04:23:42;;;;;;;5.45;1.20;;;;;;;;;;5047811;27;87691;-79
2023/05/30 04:26:11;;;;;;;4.00;1.30;;;;;;;;;;5064466;27;89574;-78
2023/05/30 04:28:38;;;;;;;4.45;1.30;;;;;;;;;;5080730;27;88524;-79
2023/05/30 04:31:05;;;;;;;3.25;1.30;;;;;;;;;;5068233;27;90921;-79
2023/05/30 04:33:48;;;;;;;3.20;1.20;;;;;;;;;;5073225;27;90838;-78
2023/05/30 04:36:18;;;;;;;3.50;1.20;;;;;;;;;;5084788;27;89720;-78
2023/05/30 04:38:47;;;;;;;3.63;1.17;;;;;;;;;;5066992;27;89710;-79
2023/05/30 04:41:24;;;;;;;5.10;1.40;;;;;;;;;;5087553;27;90594;-78
2023/05/30 04:43:54;;;;;;;4.70;1.27;;;;;;;;;;5067993;27;91163;-79
2023/05/30 04:46:22;;;;;;;3.70;1.15;;;;;;;;;;5075362;27;86982;-79
2023/05/30 04:48:53;;;;;;;3.75;1.10;;;;;;;;;;5082391;27;89193;-80
2023/05/30 04:51:20;;;;;;;4.35;1.33;;;;;;;;;;5084448;27;90805;-79
2023/05/30 04:53:47;;;;;;;3.15;1.13;;;;;;;;;;5081660;27;91837;-79
2023/05/30 04:56:14;;;;;;;4.55;1.20;;;;;;;;;;5063846;27;87923;-80
2023/05/30 04:58:40;;;;;;;3.78;1.10;;;;;;;;;;5071868;27;90858;-79
2023/05/30 05:01:09;;;;;;;3.20;1.17;;;;;;;;;;5078807;27;88591;-79
2023/05/30 05:03:38;;;;;;;3.25;1.20;;;;;;;;;;5075219;27;87947;-79
2023/05/30 05:06:06;;;;;;;3.58;1.20;;;;;;;;;;5072363;27;88559;-79
2023/05/30 05:08:33;;;;;;;3.15;1.30;;;;;;;;;;5086420;27;87692;-78
2023/05/30 05:11:00;;;;;;;;;;;;;;;;;;5072402;27;91027;-79
2023/05/30 05:13:26;;;;;;;2.55;1.27;;;;;;;;;;5079264;27;93830;-79
2023/05/30 05:15:53;;;;;;;4.82;1.40;;;;;;;;;;5080722;27;88003;-79
2023/05/30 05:18:20;;;;;;;4.57;1.40;;;;;;;;;;5084104;27;89233;-79
2023/05/30 05:20:47;;;;;;;3.30;1.20;;;;;;;;;;5082678;27;88516;-80
2023/05/30 05:23:14;;;;;;;3.50;1.40;;;;;;;;;;5065711;27;87761;-80
2023/05/30 05:25:41;;;;;;;4.35;1.35;;;;;;;;;;5088667;27;88292;-79
2023/05/30 05:28:07;;;;;;;3.70;1.20;;;;;;;;;;5067806;27;87930;-79
2023/05/30 05:30:34;;;;;;;4.30;1.60;;;;;;;;;;5071901;27;90955;-79
2023/05/30 05:33:00;;;;;;;3.92;1.30;;;;;;;;;;5066284;27;88354;-79
2023/05/30 05:35:30;;;;;;;3.08;1.25;;;;;;;;;;5080491;27;87008;-79
2023/05/30 05:37:56;;;;;;;3.60;1.40;;;;;;;;;;5084854;27;87714;-79
2023/05/30 05:40:23;;;;;;;4.05;1.40;;;;;;;;;;5065548;27;88221;-80
2023/05/30 05:42:49;;;;;;;4.05;1.20;;;;;;;;;;5072894;27;88818;-80
2023/05/30 05:45:16;;;;;;;2.42;1.27;;;;;;;;;;5080577;27;89222;-79
2023/05/30 05:47:42;;;;;;;4.38;1.50;;;;;;;;;;5068328;27;88349;-79
2023/05/30 05:50:09;;;;;;;4.65;1.40;;;;;;;;;;5064312;27;87778;-79
2023/05/30 05:52:35;;;;;;;3.55;1.30;;;;;;;;;;5064670;27;88503;-79
2023/05/30 05:55:02;;;;;;;3.85;1.27;;;;;;;;;;5063049;27;94538;-79
2023/05/30 05:57:29;;;;;;;4.80;1.30;;;;;;;;;;5078471;27;89021;-80
2023/05/30 05:59:55;;;;;;;4.20;1.48;;;;;;;;;;5082537;27;89509;-79
2023/05/30 06:02:22;;;;;;;4.47;1.38;;;;;;;;;;5083742;27;89948;-79
2023/05/30 06:04:49;;;;;;;4.00;1.50;;;;;;;;;;5074621;27;88365;-80
2023/05/30 06:07:16;;;;;;;4.47;1.50;;;;;;;;;;5066106;27;89212;-79
2023/05/30 06:09:42;;;;;;;3.83;1.40;;;;;;;;;;5088143;27;87691;-80
2023/05/30 06:12:09;;;;;;;4.18;1.30;;;;;;;;;;5080517;27;88827;-80
2023/05/30 06:14:35;;;;;;;2.92;1.23;;;;;;;;;;5064297;27;87592;-80
2023/05/30 06:17:02;;;;;;;4.25;1.58;;;;;;;;;;5064261;27;92860;-80
2023/05/30 06:19:28;;;;;;;4.88;1.40;;;;;;;;;;5064323;27;90964;-80
2023/05/30 06:21:55;;;;;;;3.92;1.50;;;;;;;;;;5083493;27;87655;-80
2023/05/30 06:24:21;;;;;;;4.13;1.50;;;;;;;;;;5083087;27;90459;-80
2023/05/30 06:26:48;;;;;;;4.38;1.45;;;;;;;;;;5084403;27;88352;-80
2023/05/30 06:29:14;;;;;;;3.47;1.50;;;;;;;;;;5076159;27;88208;-80
2023/05/30 06:31:41;;;;;;;4.90;1.70;;;;;;;;;;5083064;27;89456;-80
2023/05/30 06:34:07;;;;;;;6.18;1.73;;;;;;;;;;5073780;27;88019;-80
2023/05/30 06:36:34;;;;;;;4.07;1.60;;;;;;;;;;5064397;27;88022;-80
2023/05/30 06:39:02;;;;;;;3.70;1.50;;;;;;;;;;5071639;27;88648;-80
2023/05/30 06:41:28;;;;;;;5.22;1.80;;;;;;;;;;5066198;27;89448;-80
2023/05/30 06:43:55;;;;;;;5.82;1.65;;;;;;;;;;5064634;27;88059;-80
2023/05/30 06:46:21;;;;;;;4.20;1.40;;;;;;;;;;5062296;27;90360;-80
2023/05/30 06:48:48;;;;;;;4.32;1.48;;;;;;;;;;5062589;27;89773;-80
2023/05/30 06:51:14;;;;;;;4.57;1.60;;;;;;;;;;5067178;27;87979;-80
2023/05/30 06:53:41;;;;;;;4.00;1.75;;;;;;;;;;5062220;27;88515;-80
2023/05/30 06:56:07;;;;;;;4.93;1.73;;;;;;;;;;5061946;27;90389;-80
2023/05/30 06:58:35;;;;;;;4.65;1.58;;;;;;;;;;5070504;27;89398;-80
2023/05/30 07:01:02;;;;;;;4.80;1.60;;;;;;;;;;5070736;27;91357;-80
2023/05/30 07:03:28;;;;;;;5.90;1.67;;;;;;;;;;5071545;27;88669;-80
2023/05/30 07:05:55;;;;;;;5.10;1.48;;;;;;;;;;5081921;27;88587;-80
2023/05/30 07:08:22;;;;;;;4.88;1.58;;;;;;;;;;5065398;27;87669;-80
2023/05/30 07:10:48;;;;;;;5.68;1.70;;;;;;;;;;5077935;27;90595;-80
2023/05/30 07:13:15;;;;;;;5.05;1.60;;;;;;;;;;5080537;27;87518;-80
2023/05/30 07:15:42;;;;;;;4.28;1.73;;;;;;;;;;5078576;27;89381;-80
2023/05/30 07:18:09;;;;;;;5.65;1.80;;;;;;;;;;5083140;27;88651;-80
2023/05/30 07:20:35;;;;;;;4.13;1.65;;;;;;;;;;5072773;27;88962;-80
2023/05/30 07:23:02;;;;;;;4.50;1.50;;;;;;;;;;5077964;27;94027;-80
2023/05/30 07:25:28;;;;;;;4.43;1.65;;;;;;;;;;5063912;27;88185;-80
2023/05/30 07:27:55;;;;;;;4.03;1.50;;;;;;;;;;5062186;27;88806;-80
2023/05/30 07:30:22;;;;;;;4.22;1.70;;;;;;;;;;5063743;27;88031;-80
2023/05/30 07:32:49;;;;;;;7.07;1.83;;;;;;;;;;5077527;27;88674;-80
2023/05/30 07:35:16;;;;;;;5.90;1.75;;;;;;;;;;5069103;27;88046;-80
2023/05/30 07:37:42;;;;;;;3.95;1.60;;;;;;;;;;5064751;27;87901;-81
2023/05/30 07:40:09;;;;;;;5.85;1.70;;;;;;;;;;5074304;27;89738;-80
2023/05/30 07:42:38;;;;;;;4.80;1.50;;;;;;;;;;5071363;27;88358;-80
2023/05/30 07:45:05;;;;;;;4.45;1.52;;;;;;;;;;5082767;27;93364;-80
2023/05/30 07:47:32;;;;;;;4.50;1.65;;;;;;;;;;5084275;27;87840;-81
2023/05/30 07:49:59;;;;;;;4.10;1.58;;;;;;;;;;5068251;27;89530;-81
2023/05/30 07:52:25;;;;;;;5.10;1.65;;;;;;;;;;5061799;27;88185;-80
2023/05/30 07:54:52;;;;;;;4.95;1.48;;;;;;;;;;5062268;27;88021;-81
2023/05/30 07:57:18;;;;;;;4.72;1.52;;;;;;;;;;5070878;27;88060;-80
2023/05/30 07:59:46;;;;;;;4.00;1.45;;;;;;;;;;5078256;27;87745;-81
2023/05/30 08:02:12;;;;;;;5.30;1.70;;;;;;;;;;5087646;27;88032;-81
2023/05/30 08:04:40;;;;;;;4.53;1.63;;;;;;;;;;5076117;27;89195;-81
2023/05/30 08:07:07;;;;;;;5.97;2.05;;;;;;;;;;5065238;27;89079;-80
2023/05/30 08:09:33;;;;;;;6.07;1.80;;;;;;;;;;5066596;27;88300;-81
2023/05/30 08:12:02;;;;;;;6.35;1.90;;;;;;;;;;5079252;27;88357;-81
2023/05/30 08:14:28;;;;;;;4.43;1.50;;;;;;;;;;5074584;27;89614;-80
2023/05/30 08:16:55;;;;;;;4.40;1.63;;;;;;;;;;5084759;27;88045;-81
2023/05/30 08:19:21;;;;;;;4.15;1.65;;;;;;;;;;5066864;27;87715;-80
2023/05/30 08:21:48;;;;;;;5.20;1.83;;;;;;;;;;5064917;27;90504;-80
2023/05/30 08:24:18;;;;;;;4.43;1.70;;;;;;;;;;5066391;27;88362;-80
2023/05/30 08:26:45;;;;;;;5.53;1.60;;;;;;;;;;5065470;27;88049;-81
2023/05/30 08:29:12;;;;;;;6.18;2.03;;;;;;;;;;5066572;27;87743;-80
2023/05/30 08:31:38;;;;;;;5.47;1.88;;;;;;;;;;5071088;27;90503;-80
2023/05/30 08:34:05;;;;;;;3.95;1.50;;;;;;;;;;5073402;27;88408;-81
2023/05/30 08:36:32;;;;;;;4.53;1.60;;;;;;;;;;5085397;27;89036;-80
2023/05/30 08:38:58;;;;;;;;;;;;;;;;;;5089465;27;88490;-80
2023/05/30 08:41:40;;;;;;;4.72;1.80;;;;;;;;;;5071848;27;94371;-81
2023/05/30 08:44:06;;;;;;;4.70;1.70;;;;;;;;;;5064609;27;90539;-81
2023/05/30 08:46:33;;;;;;;4.35;1.60;;;;;;;;;;5068551;27;87626;-81
2023/05/30 08:49:00;;;;;;;3.83;1.50;;;;;;;;;;5065093;27;87817;-80
2023/05/30 08:51:29;;;;;;;4.03;1.80;;;;;;;;;;5066361;27;87353;-80
2023/05/30 08:53:56;;;;;;;3.70;1.52;;;;;;;;;;5065807;27;88137;-80
2023/05/30 08:56:32;;;;;;;4.97;1.80;;;;;;;;;;5065650;27;88622;-80
2023/05/30 08:59:00;;;;;;;4.00;1.58;;;;;;;;;;5071485;27;89146;-80
2023/05/30 09:01:27;;;;;;;4.30;1.63;;;;;;;;;;5087533;27;88144;-80
2023/05/30 09:03:56;;;;;;;4.65;1.60;;;;;;;;;;5082341;27;90745;-80
2023/05/30 09:06:24;;;;;;;4.43;1.70;;;;;;;;;;5065467;27;87970;-80
2023/05/30 09:08:51;;;;;;;3.60;1.50;;;;;;;;;;5069329;27;88398;-80
2023/05/30 09:11:18;;;;;;;4.35;1.60;;;;;;;;;;5084307;27;88263;-80
2023/05/30 09:13:45;;;;;;;4.20;1.50;;;;;;;;;;5071804;27;87846;-80
2023/05/30 09:16:12;;;;;;;4.45;1.70;;;;;;;;;;5085953;27;88042;-80
2023/05/30 09:18:39;;;;;;;5.28;1.80;;;;;;;;;;5073189;27;88384;-80
2023/05/30 09:21:06;;;;;;;5.10;1.50;;;;;;;;;;5064576;27;87533;-80
2023/05/30 09:23:33;;;;;;;;;;;;;;;;;;5066651;27;90248;-80
2023/05/30 09:26:00;;;;;;;3.22;1.40;;;;;;;;;;5080517;27;88214;-80
2023/05/30 09:28:27;;;;;;;4.45;1.58;;;;;;;;;;5064848;27;88004;-80
2023/05/30 09:30:54;;;;;;;4.22;1.50;;;;;;;;;;5076863;27;88523;-80
2023/05/30 09:33:40;;;;;;;3.45;1.55;;;;;;;;;;5070524;27;88110;-79
2023/05/30 09:36:07;;;;;;;4.07;1.60;;;;;;;;;;5081758;27;87774;-79
2023/05/30 09:38:34;;;;;;;3.80;1.60;;;;;;;;;;5083637;27;88778;-80
2023/05/30 09:41:04;;;;;;;4.15;1.60;;;;;;;;;;5073027;27;88944;-80
2023/05/30 09:43:31;;;;;;;4.80;1.80;;;;;;;;;;5081245;27;88587;-80
2023/05/30 09:45:59;;;;;;;3.60;1.42;;;;;;;;;;5067924;27;89387;-79
2023/05/30 09:48:26;;;;;;;4.22;1.50;;;;;;;;;;5064432;27;89061;-80
2023/05/30 09:50:53;;;;;;;4.05;1.45;;;;;;;;;;5064465;27;87641;-80
2023/05/30 09:53:19;;;;;;;3.85;1.55;;;;;;;;;;5063093;27;89673;-80
2023/05/30 09:55:46;;;;;;;5.40;1.70;;;;;;;;;;5064367;27;87920;-80
2023/05/30 09:58:19;;;;;;;4.53;1.75;;;;;;;;;;5068672;27;88522;-80
2023/05/30 10:00:52;;;;;;;4.57;1.60;;;;;;;;;;5082094;27;89097;-79
2023/05/30 10:03:38;;;;;;;4.40;1.75;;;;;;;;;;5067683;27;88412;-79
2023/05/30 10:06:23;;;;;;;3.80;1.50;;;;;;;;;;5079935;27;88320;-79
2023/05/30 10:08:50;;;;;;;3.95;1.48;;;;;;;;;;5072243;27;87936;-80
2023/05/30 10:11:18;;;;;;;4.45;1.60;;;;;;;;;;5071362;27;90906;-80
2023/05/30 10:13:45;;;;;;;4.03;1.65;;;;;;;;;;5081133;27;88763;-80
2023/05/30 10:16:12;;;;;;;5.90;1.75;;;;;;;;;;5065232;27;89137;-80
2023/05/30 10:18:43;;;;;;;2.55;1.30;;;;;;;;;;5062668;27;90350;-80
2023/05/30 10:21:11;;;;;;;4.28;1.60;;;;;;;;;;5067938;27;87816;-80
2023/05/30 10:23:40;;;;;;;3.90;1.67;;;;;;;;;;5070874;27;88607;-80
2023/05/30 10:26:07;;;;;;;5.70;1.60;;;;;;;;;;5063177;27;90341;-79
2023/05/30 10:28:34;;;;;;;4.68;1.70;;;;;;;;;;5067628;27;88027;-79
2023/05/30 10:31:01;;;;;;;4.75;1.67;;;;;;;;;;5064340;27;88015;-79
2023/05/30 10:33:28;;;;;;;;;;;;;;;;;;5070899;27;87805;-81
2023/05/30 10:36:09;;;;;;;3.58;1.40;;;;;;;;;;5084808;27;110617;-80
2023/05/30 10:39:02;;;;;;;4.80;1.50;;;;;;;;;;5073686;27;91589;-80
2023/05/30 10:41:41;;;;;;;3.97;1.50;;;;;;;;;;5066914;27;91040;-80
2023/05/30 10:44:28;;;;;;;4.45;1.80;;;;;;;;;;5064883;27;88012;-81
2023/05/30 10:47:15;;;;;;;4.60;1.63;;;;;;;;;;5062982;27;88603;-79
2023/05/30 10:49:41;;;;;;;4.20;1.40;;;;;;;;;;5054064;27;88993;-81
2023/05/30 10:52:09;;;;;;;3.88;1.50;;;;;;;;;;5075580;27;87998;-80
2023/05/30 10:54:36;;;;;;;3.50;1.42;;;;;;;;;;5073950;27;88614;-80
2023/05/30 10:57:20;;;;;;;2.97;1.40;;;;;;;;;;5065058;27;91605;-80
2023/05/30 10:59:47;;;;;;;4.38;1.60;;;;;;;;;;5073757;27;91074;-80
2023/05/30 11:02:20;;;;;;;5.15;1.50;;;;;;;;;;5078193;27;88057;-80
2023/05/30 11:04:50;;;;;;;4.15;1.58;;;;;;;;;;5082835;27;90181;-79
2023/05/30 11:07:17;;;;;;;3.95;1.58;;;;;;;;;;5068763;27;90574;-79
2023/05/30 11:10:02;;;;;;;4.75;1.67;;;;;;;;;;5084883;27;87812;-80
2023/05/30 11:12:28;;;;;;;4.93;1.80;;;;;;;;;;5080252;27;87906;-79
2023/05/30 11:14:56;;;;;;;5.40;1.65;;;;;;;;;;5074985;27;90395;-80
2023/05/30 11:17:22;;;;;;;;;;;;;;;;;;5065455;27;88022;-80
2023/05/30 11:19:49;;;;;;;4.63;1.58;;;;;;;;;;5078836;27;114867;-79
2023/05/30 11:22:16;;;;;;;5.40;1.67;;;;;;;;;;5064191;27;86921;-80
2023/05/30 11:24:43;;;;;;;3.92;1.60;;;;;;;;;;5063900;27;88088;-79
2023/05/30 11:27:12;;;;;;;3.83;1.50;;;;;;;;;;5061937;27;88379;-80
2023/05/30 11:29:45;;;;;;;4.85;1.50;;;;;;;;;;5061762;27;88451;-80
2023/05/30 11:32:11;;;;;;;4.47;1.50;;;;;;;;;;5062059;27;91490;-81
2023/05/30 11:34:38;;;;;;;4.65;1.50;;;;;;;;;;5082590;27;88731;-80
2023/05/30 11:37:05;;;;;;;3.70;1.50;;;;;;;;;;5070252;27;87896;-80
2023/05/30 11:39:32;;;;;;;3.80;1.50;;;;;;;;;;5067685;27;88715;-81
2023/05/30 11:42:00;;;;;;;4.18;1.40;;;;;;;;;;5048579;27;87914;-80
2023/05/30 11:44:28;;;;;;;3.53;1.50;;;;;;;;;;5067420;27;88235;-81
2023/05/30 11:46:58;;;;;;;3.65;1.50;;;;;;;;;;5064965;27;90222;-80
2023/05/30 11:49:25;;;;;;;5.15;1.45;;;;;;;;;;5067241;27;88021;-80
2023/05/30 11:51:52;;;;;;;3.65;1.35;;;;;;;;;;5067026;27;88091;-81
2023/05/30 11:54:19;;;;;;;;;;;;;;;;;;5065534;27;89154;-80
2023/05/30 11:56:47;;;;;;;3.25;1.52;;;;;;;;;;5066019;27;114514;-81
2023/05/30 11:59:20;;;;;;;3.35;1.50;;;;;;;;;;5074593;27;88184;-80
2023/05/30 12:01:46;;;;;;;;;;;;;;;;;;5068805;27;88110;-80
2023/05/30 12:04:13;;;;;;;3.88;1.40;;;;;;;;;;5083736;27;106533;-81
2023/05/30 12:06:40;;;;;;;3.03;1.33;;;;;;;;;;5047546;27;88488;-81
2023/05/30 12:09:06;;;;;;;4.30;1.60;;;;;;;;;;5065140;27;89292;-80
2023/05/30 12:11:33;;;;;;;3.80;1.50;;;;;;;;;;5077996;27;88144;-81
2023/05/30 12:13:59;;;;;;;3.33;1.42;;;;;;;;;;5066943;27;88712;-81
2023/05/30 12:16:26;;;;;;;2.63;1.33;;;;;;;;;;5065999;27;87626;-80
2023/05/30 12:18:53;;;;;;;3.33;1.40;;;;;;;;;;5064387;27;89964;-81
2023/05/30 12:21:20;;;;;;;3.08;1.35;;;;;;;;;;5075216;27;88252;-80
2023/05/30 12:23:47;;;;;;;3.55;1.27;;;;;;;;;;5086041;27;88051;-80
2023/05/30 12:26:17;;;;;;;3.00;1.27;;;;;;;;;;5086497;27;89052;-81
2023/05/30 12:28:46;;;;;;;3.80;1.23;;;;;;;;;;5086366;27;88071;-80
2023/05/30 12:31:22;;;;;;;2.88;1.45;;;;;;;;;;5082401;27;88000;-81
2023/05/30 12:33:49;;;;;;;4.18;1.52;;;;;;;;;;5085291;27;88334;-80
2023/05/30 12:36:15;;;;;;;2.45;1.40;;;;;;;;;;5055186;27;89918;-80
2023/05/30 12:38:56;;;;;;;3.17;1.40;;;;;;;;;;5065297;27;88617;-81
2023/05/30 12:41:26;;;;;;;3.25;1.35;;;;;;;;;;5068017;27;88126;-81
2023/05/30 12:43:54;;;;;;;2.30;1.20;;;;;;;;;;5067638;27;88443;-80
2023/05/30 12:46:21;;;;;;;2.85;1.40;;;;;;;;;;5081966;27;88471;-81
2023/05/30 12:48:47;;;;;;;3.40;1.40;;;;;;;;;;5066401;27;88021;-81
2023/05/30 12:51:14;;;;;;;2.38;1.20;;;;;;;;;;5066594;27;88427;-81
2023/05/30 12:53:41;;;;;;;2.88;1.30;;;;;;;;;;5071686;27;88247;-81
2023/05/30 12:56:07;;;;;;;3.15;1.20;;;;;;;;;;5078555;27;87645;-81
2023/05/30 12:58:34;;;;;;;2.38;1.30;;;;;;;;;;5072060;27;88161;-81
2023/05/30 13:01:00;;;;;;;2.80;1.40;;;;;;;;;;5065873;27;87692;-80
2023/05/30 13:03:27;;;;;;;2.53;1.10;;;;;;;;;;5069564;27;87853;-80
2023/05/30 13:05:54;;;;;;;2.35;1.20;;;;;;;;;;5064972;27;90302;-78
2023/05/30 13:08:20;;;;;;;2.50;1.30;;;;;;;;;;5068896;27;88688;-79
2023/05/30 13:10:47;;;;;;;1.80;1.20;;;;;;;;;;5072463;27;88782;-79
2023/05/30 13:13:14;;;;;;;2.80;1.20;;;;;;;;;;5078499;27;88408;-81
2023/05/30 13:15:41;;;;;;;2.58;1.27;;;;;;;;;;5070356;27;87782;-81
2023/05/30 13:18:07;;;;;;;2.88;1.23;;;;;;;;;;5064331;27;90356;-80
2023/05/30 13:20:34;;;;;;;2.95;1.30;;;;;;;;;;5079613;27;89191;-80
2023/05/30 13:23:00;;;;;;;2.50;1.20;;;;;;;;;;5065087;27;87870;-80
2023/05/30 13:25:27;;;;;;;2.53;1.40;;;;;;;;;;5069757;27;88841;-79
2023/05/30 13:27:53;;;;;;;2.50;1.20;;;;;;;;;;5063827;27;88778;-80
2023/05/30 13:30:20;;;;;;;1.98;1.13;;;;;;;;;;5058015;27;90668;-80
2023/05/30 13:32:47;;;;;;;2.60;1.17;;;;;;;;;;5069808;27;89579;-80
2023/05/30 13:35:13;;;;;;;2.67;1.10;;;;;;;;;;5076184;27;87709;-80
2023/05/30 13:37:40;;;;;;;2.13;1.30;;;;;;;;;;5047580;27;87918;-80
2023/05/30 13:40:09;;;;;;;3.05;1.20;;;;;;;;;;5081752;27;88383;-80
2023/05/30 13:42:37;;;;;;;2.38;1.30;;;;;;;;;;5083273;27;87613;-80
2023/05/30 13:45:04;;;;;;;1.83;1.02;;;;;;;;;;5082417;27;92344;-79
2023/05/30 13:47:31;;;;;;;2.90;1.20;;;;;;;;;;5067857;27;88141;-80
2023/05/30 13:49:58;;;;;;;2.40;1.17;;;;;;;;;;5073468;27;88357;-80
2023/05/30 13:52:24;;;;;;;2.75;1.30;;;;;;;;;;5065025;27;88610;-80
2023/05/30 13:54:51;;;;;;;2.00;1.20;;;;;;;;;;5062831;27;87904;-80
2023/05/30 13:57:17;;;;;;;2.67;1.20;;;;;;;;;;5080115;27;88952;-80
2023/05/30 13:59:44;;;;;;;1.77;1.20;;;;;;;;;;5084373;27;88394;-80
2023/05/30 14:02:11;;;;;;;2.65;1.30;;;;;;;;;;5083873;27;87651;-80
2023/05/30 14:04:37;;;;;;;1.80;1.20;;;;;;;;;;5082357;27;88064;-80
2023/05/30 14:07:04;;;;;;;1.95;1.20;;;;;;;;;;5064708;27;87701;-79
2023/05/30 14:09:31;;;;;;;2.40;1.30;;;;;;;;;;5067928;27;87694;-79
2023/05/30 14:11:58;;;;;;;2.47;1.10;;;;;;;;;;5077643;27;88944;-80
2023/05/30 14:14:25;;;;;;;2.65;1.30;;;;;;;;;;5076834;27;86864;-80
2023/05/30 14:16:51;;;;;;;2.08;1.20;;;;;;;;;;5062286;27;95894;-80
2023/05/30 14:19:18;;;;;;;2.03;1.15;;;;;;;;;;5065068;27;88489;-81
2023/05/30 14:21:44;;;;;;;3.58;1.30;;;;;;;;;;5064061;27;88678;-79
2023/05/30 14:24:11;;;;;;;1.80;1.20;;;;;;;;;;5080526;27;88783;-79
2023/05/30 14:26:37;;;;;;;3.47;1.40;;;;;;;;;;5066027;27;90258;-80
2023/05/30 14:29:04;;;;;;;2.38;1.13;;;;;;;;;;5073442;27;89833;-80
2023/05/30 14:31:30;;;;;;;2.00;1.20;;;;;;;;;;5087114;27;88156;-80
2023/05/30 14:33:57;;;;;;;1.60;1.17;;;;;;;;;;5075337;27;88144;-80
2023/05/30 14:36:24;;;;;;;2.20;1.27;;;;;;;;;;5067796;27;88045;-80
2023/05/30 14:38:51;;;;;;;2.60;1.13;;;;;;;;;;5063630;27;87528;-80
2023/05/30 14:41:17;;;;;;;2.47;1.35;;;;;;;;;;5064284;27;87562;-80
2023/05/30 14:43:44;;;;;;;2.42;1.20;;;;;;;;;;5063039;27;90632;-80
2023/05/30 14:46:11;;;;;;;1.52;1.10;;;;;;;;;;5068030;27;89014;-80
2023/05/30 14:48:37;;;;;;;2.83;1.35;;;;;;;;;;5080360;27;89375;-80
2023/05/30 14:51:04;;;;;;;2.30;1.23;;;;;;;;;;5065479;27;88328;-80